createdAt,value
2023-01-31T00:00:36.258Z,3.12
2023-01-31T00:03:06.049Z,3.08
2023-01-31T00:05:36.166Z,3.10
2023-01-31T00:08:06.177Z,3.09
2023-01-31T00:10:36.237Z,3.16
2023-01-31T00:13:08.596Z,3.14
2023-01-31T00:15:39.042Z,3.11
2023-01-31T00:18:09.284Z,3.11
2023-01-31T00:20:39.498Z,3.13
2023-01-31T00:23:09.221Z,3.12
2023-01-31T00:25:39.084Z,3.07
2023-01-31T00:28:11.758Z,3.12
2023-01-31T00:30:41.749Z,3.10
2023-01-31T00:33:11.783Z,3.10
2023-01-31T00:35:43.216Z,3.10
2023-01-31T00:38:16.024Z,3.06
2023-01-31T00:40:45.881Z,3.11
2023-01-31T00:43:18.660Z,3.08
2023-01-31T00:45:48.685Z,3.06
2023-01-31T00:48:18.794Z,3.06
2023-01-31T00:50:49.016Z,3.03
2023-01-31T00:53:23.760Z,3.09
2023-01-31T00:55:54.626Z,3.03
2023-01-31T00:58:27.526Z,3.00
2023-01-31T01:00:59.101Z,3.03
2023-01-31T01:03:28.984Z,3.03
2023-01-31T01:05:58.897Z,3.02
2023-01-31T01:08:28.767Z,3.05
2023-01-31T01:10:59.102Z,3.07
2023-01-31T01:13:31.960Z,3.02
2023-01-31T01:16:07.516Z,2.99
2023-01-31T01:18:37.499Z,3.01
2023-01-31T01:21:12.769Z,3.01
2023-01-31T01:23:44.157Z,2.98
2023-01-31T01:26:17.804Z,2.99
2023-01-31T01:28:51.856Z,2.95
2023-01-31T01:31:30.907Z,2.96
2023-01-31T01:34:02.573Z,2.96
2023-01-31T01:36:34.908Z,2.97
2023-01-31T01:39:05.961Z,2.95
2023-01-31T01:41:36.384Z,2.93
2023-01-31T01:44:36.582Z,2.94
2023-01-31T01:47:18.367Z,2.95
2023-01-31T01:49:54.160Z,2.94
2023-01-31T01:52:28.482Z,2.92
2023-01-31T01:55:05.411Z,2.89
2023-01-31T01:57:40.384Z,2.90
2023-01-31T02:00:17.950Z,2.90
2023-01-31T02:02:55.391Z,2.91
2023-01-31T02:05:33.770Z,2.89
2023-01-31T02:08:05.445Z,2.85
2023-01-31T02:10:42.642Z,2.84
2023-01-31T02:13:14.963Z,2.85
2023-01-31T02:15:47.293Z,2.85
2023-01-31T02:18:24.508Z,2.83
2023-01-31T02:21:32.019Z,2.81
2023-01-31T02:24:41.172Z,2.85
2023-01-31T02:27:51.222Z,2.82
2023-01-31T02:30:54.619Z,2.77
2023-01-31T02:33:37.893Z,2.77
2023-01-31T02:36:25.681Z,2.77
2023-01-31T02:39:05.796Z,2.78
2023-01-31T02:41:46.689Z,2.74
2023-01-31T02:44:38.343Z,2.70
2023-01-31T02:47:21.056Z,2.70
2023-01-31T02:49:59.608Z,2.69
2023-01-31T02:52:39.821Z,2.69
2023-01-31T02:55:31.963Z,2.68
2023-01-31T02:58:05.868Z,2.68
2023-01-31T03:00:39.418Z,2.60
2023-01-31T03:03:15.849Z,2.62
2023-01-31T03:05:59.395Z,2.63
2023-01-31T03:08:30.435Z,2.64
2023-01-31T03:11:08.156Z,2.64
2023-01-31T03:13:54.537Z,2.58
2023-01-31T03:16:47.192Z,2.58
2023-01-31T03:19:22.713Z,2.57
2023-01-31T03:22:04.275Z,2.53
2023-01-31T03:24:36.392Z,2.47
2023-01-31T03:27:08.798Z,2.49
2023-01-31T03:29:40.879Z,2.45
2023-01-31T03:32:24.765Z,2.42
2023-01-31T03:34:57.122Z,2.33
2023-01-31T03:37:42.471Z,2.30
2023-01-31T03:40:24.169Z,2.27
2023-01-31T03:43:00.572Z,2.23
2023-01-31T03:45:38.820Z,2.18
2023-01-31T03:48:15.234Z,2.14
2023-01-31T03:50:54.550Z,2.12
2023-01-31T03:53:36.154Z,2.08
2023-01-31T03:56:14.585Z,2.06
2023-01-31T03:58:54.035Z,1.95
2023-01-31T04:01:29.768Z,2.01
2023-01-31T04:04:08.610Z,2.01
2023-01-31T04:06:38.930Z,1.97
2023-01-31T04:09:14.098Z,1.99
2023-01-31T04:11:45.345Z,2.08
2023-01-31T04:14:16.137Z,2.11
2023-01-31T04:16:46.023Z,2.10
2023-01-31T04:19:15.835Z,2.14
2023-01-31T04:21:46.422Z,2.14
2023-01-31T04:24:20.458Z,2.12
2023-01-31T04:26:50.902Z,2.13
2023-01-31T04:29:21.128Z,2.17
2023-01-31T04:31:51.143Z,2.17
2023-01-31T04:34:20.967Z,2.17
2023-01-31T04:36:51.044Z,2.16
2023-01-31T04:39:23.468Z,2.18
2023-01-31T04:41:53.321Z,2.22
2023-01-31T04:44:23.172Z,2.22
2023-01-31T04:46:53.117Z,2.17
2023-01-31T04:49:22.992Z,2.25
2023-01-31T04:51:53.177Z,2.22
2023-01-31T04:54:25.592Z,2.21
2023-01-31T04:56:55.505Z,2.20
2023-01-31T04:59:25.447Z,2.21
2023-01-31T05:01:55.287Z,2.21
2023-01-31T05:04:26.388Z,2.22
2023-01-31T05:06:57.722Z,2.19
2023-01-31T05:09:30.284Z,2.20
2023-01-31T05:12:00.232Z,2.23
2023-01-31T05:14:30.188Z,2.18
2023-01-31T05:17:00.342Z,2.14
2023-01-31T05:19:30.210Z,2.78
2023-01-31T05:22:01.072Z,2.63
2023-01-31T05:24:36.838Z,2.67
2023-01-31T05:27:07.939Z,3.10
2023-01-31T05:29:38.118Z,2.65
2023-01-31T05:32:08.642Z,2.93
2023-01-31T05:34:38.980Z,3.04
2023-01-31T05:37:09.116Z,3.17
2023-01-31T05:39:42.038Z,3.10
2023-01-31T05:42:12.091Z,3.31
2023-01-31T05:44:42.122Z,4.54
2023-01-31T05:47:11.924Z,3.89
2023-01-31T05:49:42.319Z,3.86
2023-01-31T05:52:12.150Z,4.37
2023-01-31T05:54:44.702Z,4.00
2023-01-31T05:57:15.448Z,3.72
2023-01-31T05:59:45.374Z,3.06
2023-01-31T06:02:15.249Z,2.81
2023-01-31T06:04:45.412Z,2.71
2023-01-31T06:07:15.359Z,2.64
2023-01-31T06:09:47.947Z,2.59
2023-01-31T06:12:18.102Z,2.55
2023-01-31T06:14:49.472Z,2.53
2023-01-31T06:17:19.870Z,2.54
2023-01-31T06:19:50.025Z,2.48
2023-01-31T06:22:19.973Z,2.49
2023-01-31T06:24:52.413Z,2.44
2023-01-31T06:27:22.398Z,2.42
2023-01-31T06:29:52.132Z,2.39
2023-01-31T06:32:21.974Z,2.32
2023-01-31T06:34:51.775Z,2.32
2023-01-31T06:37:21.574Z,2.34
2023-01-31T06:39:53.995Z,2.33
2023-01-31T06:42:23.916Z,2.29
2023-01-31T06:44:53.683Z,2.31
2023-01-31T06:47:23.608Z,2.34
2023-01-31T06:49:53.359Z,2.28
2023-01-31T06:52:23.165Z,2.27
2023-01-31T06:54:55.597Z,2.30
2023-01-31T06:57:25.409Z,2.32
2023-01-31T06:59:55.211Z,2.31
2023-01-31T07:02:25.075Z,2.40
2023-01-31T07:04:55.561Z,2.45
2023-01-31T07:07:25.447Z,2.54
2023-01-31T07:09:58.043Z,2.77
2023-01-31T07:12:28.267Z,2.98
2023-01-31T07:14:58.155Z,3.23
2023-01-31T07:17:28.057Z,3.48
2023-01-31T07:19:57.977Z,3.88
2023-01-31T07:22:28.333Z,4.14
2023-01-31T07:25:00.731Z,4.04
2023-01-31T07:27:31.199Z,3.88
2023-01-31T07:30:01.132Z,4.14
2023-01-31T07:32:34.514Z,4.16
2023-01-31T07:35:04.546Z,4.44
2023-01-31T07:37:34.468Z,4.59
2023-01-31T07:40:07.810Z,5.38
2023-01-31T07:42:37.736Z,5.96
2023-01-31T07:45:33.511Z,6.06
2023-01-31T07:48:01.669Z,6.53
2023-01-31T07:50:32.104Z,6.51
2023-01-31T07:53:02.456Z,6.69
2023-01-31T07:55:34.807Z,6.80
2023-01-31T07:58:04.595Z,6.95
2023-01-31T08:00:47.021Z,7.19
2023-01-31T08:03:37.220Z,6.81
2023-01-31T08:06:11.434Z,6.49
2023-01-31T08:08:43.707Z,7.47
2023-01-31T08:11:16.632Z,7.60
2023-01-31T08:13:46.727Z,8.03
2023-01-31T08:16:16.625Z,8.26
2023-01-31T08:18:46.615Z,8.35
2023-01-31T08:21:17.275Z,8.71
2023-01-31T08:23:47.847Z,8.19
2023-01-31T08:26:23.249Z,8.72
2023-01-31T08:28:55.894Z,8.91
2023-01-31T08:31:29.494Z,9.45
2023-01-31T08:34:00.110Z,9.68
2023-01-31T08:36:34.014Z,9.39
2023-01-31T08:39:04.151Z,9.84
2023-01-31T08:41:37.942Z,10.49
2023-01-31T08:44:08.866Z,11.01
2023-01-31T08:46:40.986Z,11.05
2023-01-31T08:49:11.613Z,11.25
2023-01-31T08:51:41.503Z,11.92
2023-01-31T08:54:12.978Z,12.09
2023-01-31T08:56:45.341Z,12.19
2023-01-31T08:59:15.362Z,12.21
2023-01-31T09:01:46.762Z,12.53
2023-01-31T09:04:16.922Z,13.10
2023-01-31T09:06:46.712Z,13.19
2023-01-31T09:09:16.557Z,13.43
2023-01-31T09:11:48.909Z,13.59
2023-01-31T09:14:18.760Z,13.58
2023-01-31T09:16:48.659Z,13.82
2023-01-31T09:19:18.581Z,14.05
2023-01-31T09:21:48.395Z,13.98
2023-01-31T09:24:18.296Z,14.19
2023-01-31T09:26:50.697Z,14.17
2023-01-31T09:29:20.537Z,14.48
2023-01-31T09:31:53.741Z,14.85
2023-01-31T09:34:23.821Z,14.92
2023-01-31T09:36:54.432Z,15.18
2023-01-31T09:39:24.220Z,14.07
2023-01-31T09:42:02.009Z,12.78
2023-01-31T09:44:36.178Z,11.90
2023-01-31T09:47:17.675Z,11.28
2023-01-31T09:49:53.076Z,10.89
2023-01-31T09:52:27.513Z,10.41
2023-01-31T09:54:58.252Z,9.54
2023-01-31T09:57:46.016Z,9.98
2023-01-31T10:00:25.935Z,9.51
2023-01-31T10:03:22.871Z,8.47
2023-01-31T10:06:00.706Z,8.00
2023-01-31T10:08:46.741Z,7.74
2023-01-31T10:11:25.562Z,7.36
2023-01-31T10:14:02.843Z,7.34
2023-01-31T10:16:40.750Z,7.45
2023-01-31T10:19:17.127Z,7.33
2023-01-31T10:21:53.121Z,7.14
2023-01-31T10:24:32.663Z,6.95
2023-01-31T10:27:14.639Z,6.74
2023-01-31T10:29:53.936Z,6.47
2023-01-31T10:32:31.850Z,6.21
2023-01-31T10:35:06.764Z,6.43
2023-01-31T10:37:45.362Z,6.48
2023-01-31T10:40:19.021Z,6.28
2023-01-31T10:42:55.076Z,6.18
2023-01-31T10:45:31.952Z,6.25
2023-01-31T10:48:16.720Z,6.32
2023-01-31T10:51:01.101Z,6.26
2023-01-31T10:53:52.137Z,6.12
2023-01-31T10:56:34.266Z,6.18
2023-01-31T10:59:14.620Z,6.21
2023-01-31T11:01:47.420Z,6.06
2023-01-31T11:04:31.224Z,5.86
2023-01-31T11:07:02.764Z,5.85
2023-01-31T11:09:37.146Z,5.69
2023-01-31T11:12:09.732Z,5.66
2023-01-31T11:14:39.536Z,5.59
2023-01-31T11:17:20.098Z,5.48
2023-01-31T11:19:53.810Z,5.39
2023-01-31T11:22:28.638Z,5.30
2023-01-31T11:25:00.115Z,5.44
2023-01-31T11:27:35.936Z,5.35
2023-01-31T11:30:07.317Z,5.37
2023-01-31T11:32:41.013Z,5.33
2023-01-31T11:35:28.111Z,5.34
2023-01-31T11:38:02.653Z,5.29
2023-01-31T11:40:35.310Z,5.31
2023-01-31T11:43:09.635Z,5.30
2023-01-31T11:45:46.450Z,5.29
2023-01-31T11:48:25.092Z,5.28
2023-01-31T11:51:00.756Z,5.20
2023-01-31T11:53:48.289Z,5.20
2023-01-31T11:56:24.398Z,5.18
2023-01-31T11:58:59.332Z,5.16
2023-01-31T12:01:30.160Z,5.16
2023-01-31T12:04:06.251Z,5.15
2023-01-31T12:06:39.215Z,5.15
2023-01-31T12:09:23.715Z,5.18
2023-01-31T12:11:55.779Z,5.13
2023-01-31T12:14:27.833Z,5.09
2023-01-31T12:16:59.592Z,5.07
2023-01-31T12:19:50.251Z,5.14
2023-01-31T12:22:28.069Z,5.07
2023-01-31T12:25:10.596Z,5.12
2023-01-31T12:28:01.834Z,5.04
2023-01-31T12:30:52.839Z,5.02
2023-01-31T12:33:38.537Z,5.07
2023-01-31T12:36:28.301Z,5.09
2023-01-31T12:39:26.505Z,5.06
2023-01-31T12:42:17.137Z,5.03
2023-01-31T12:44:52.548Z,5.05
2023-01-31T12:47:46.909Z,5.05
2023-01-31T12:50:32.259Z,5.13
2023-01-31T12:53:31.034Z,5.15
2023-01-31T12:56:17.539Z,5.34
2023-01-31T12:59:10.082Z,5.55
2023-01-31T13:01:53.829Z,5.65
2023-01-31T13:04:37.685Z,5.76
2023-01-31T13:07:15.167Z,5.82
2023-01-31T13:09:53.043Z,5.82
2023-01-31T13:12:27.121Z,5.82
2023-01-31T13:15:06.706Z,5.82
2023-01-31T13:17:42.296Z,5.94
2023-01-31T13:20:26.163Z,5.84
2023-01-31T13:23:03.987Z,5.88
2023-01-31T13:25:42.111Z,5.72
2023-01-31T13:28:20.085Z,5.72
2023-01-31T13:30:58.505Z,5.70
2023-01-31T13:33:35.498Z,5.64
2023-01-31T13:36:22.021Z,5.57
2023-01-31T13:38:52.577Z,5.54
2023-01-31T13:41:30.928Z,5.57
2023-01-31T13:44:03.584Z,5.52
2023-01-31T13:46:41.015Z,5.37
2023-01-31T13:49:20.727Z,5.30
2023-01-31T13:51:56.933Z,5.26
2023-01-31T13:54:33.565Z,5.16
2023-01-31T13:57:07.455Z,5.14
2023-01-31T13:59:40.709Z,5.16
2023-01-31T14:02:21.784Z,5.20
2023-01-31T14:04:52.267Z,5.24
2023-01-31T14:07:25.178Z,5.14
2023-01-31T14:10:25.098Z,5.06
2023-01-31T14:13:38.126Z,5.05
2023-01-31T14:16:43.198Z,5.01
2023-01-31T14:19:55.152Z,4.98
2023-01-31T14:22:26.935Z,4.93
2023-01-31T14:25:02.680Z,4.97
2023-01-31T14:28:04.136Z,4.92
2023-01-31T14:30:47.718Z,4.96
2023-01-31T14:33:31.083Z,4.95
2023-01-31T14:36:39.370Z,4.97
2023-01-31T14:39:38.015Z,4.93
2023-01-31T14:42:34.127Z,4.89
2023-01-31T14:45:27.465Z,4.88
2023-01-31T14:48:18.198Z,4.88
2023-01-31T14:51:12.812Z,4.87
2023-01-31T14:54:05.021Z,4.84
2023-01-31T14:56:58.000Z,4.89
2023-01-31T14:59:37.491Z,4.85
2023-01-31T15:02:45.910Z,4.84
2023-01-31T15:05:22.399Z,4.84
2023-01-31T15:08:05.171Z,4.81
2023-01-31T15:10:58.267Z,4.80
2023-01-31T15:13:50.606Z,4.75
2023-01-31T15:16:26.038Z,4.78
2023-01-31T15:19:03.792Z,4.72
2023-01-31T15:21:42.524Z,4.76
2023-01-31T15:24:21.739Z,4.69
2023-01-31T15:26:53.483Z,4.69
2023-01-31T15:29:30.289Z,4.70
2023-01-31T15:32:06.700Z,4.68
2023-01-31T15:34:58.588Z,4.64
2023-01-31T15:37:36.981Z,4.65
2023-01-31T15:40:24.052Z,4.64
2023-01-31T15:42:54.475Z,4.61
2023-01-31T15:45:29.829Z,4.57
2023-01-31T15:48:02.648Z,4.56
2023-01-31T15:50:35.867Z,4.57
2023-01-31T15:53:16.123Z,4.52
2023-01-31T15:55:49.575Z,4.53
2023-01-31T15:58:22.348Z,4.56
2023-01-31T16:00:55.195Z,4.51
2023-01-31T16:03:29.066Z,4.49
2023-01-31T16:06:02.548Z,4.50
2023-01-31T16:08:37.655Z,4.49
2023-01-31T16:11:10.968Z,4.48
2023-01-31T16:13:44.138Z,4.50
2023-01-31T16:16:15.588Z,4.44
2023-01-31T16:18:51.156Z,4.49
2023-01-31T16:21:30.011Z,4.50
2023-01-31T16:24:05.527Z,4.48
2023-01-31T16:26:40.999Z,4.44
2023-01-31T16:29:16.213Z,4.46
2023-01-31T16:31:52.407Z,4.49
2023-01-31T16:34:28.934Z,4.46
2023-01-31T16:37:02.615Z,4.49
2023-01-31T16:39:44.935Z,4.48
2023-01-31T16:42:29.503Z,4.47
2023-01-31T16:44:59.942Z,4.41
2023-01-31T16:47:51.392Z,4.43
2023-01-31T16:50:42.838Z,4.47
2023-01-31T16:53:29.806Z,4.47
2023-01-31T16:56:24.601Z,4.52
2023-01-31T16:58:57.710Z,5.84
2023-01-31T17:01:30.826Z,7.41
2023-01-31T17:04:07.572Z,6.90
2023-01-31T17:06:38.672Z,5.89
2023-01-31T17:09:15.754Z,5.69
2023-01-31T17:11:49.643Z,5.62
2023-01-31T17:14:19.472Z,5.78
2023-01-31T17:16:52.708Z,5.23
2023-01-31T17:19:24.532Z,5.01
2023-01-31T17:21:54.689Z,4.95
2023-01-31T17:24:25.293Z,4.91
2023-01-31T17:26:58.537Z,4.83
2023-01-31T17:29:28.839Z,4.75
2023-01-31T17:31:59.215Z,4.78
2023-01-31T17:34:29.060Z,4.73
2023-01-31T17:36:59.349Z,4.74
2023-01-31T17:39:29.177Z,4.68
2023-01-31T17:42:01.924Z,4.65
2023-01-31T17:44:31.843Z,4.66
2023-01-31T17:47:02.780Z,4.61
2023-01-31T17:49:35.512Z,4.61
2023-01-31T17:52:05.548Z,4.60
2023-01-31T17:54:35.752Z,4.58
2023-01-31T17:57:08.185Z,4.56
2023-01-31T17:59:38.486Z,4.56
2023-01-31T18:02:08.427Z,4.58
2023-01-31T18:04:38.446Z,4.58
2023-01-31T18:07:08.467Z,4.66
2023-01-31T18:09:39.094Z,4.59
2023-01-31T18:12:11.664Z,4.60
2023-01-31T18:14:41.439Z,4.57
2023-01-31T18:17:11.346Z,4.55
2023-01-31T18:19:42.161Z,4.51
2023-01-31T18:22:12.126Z,4.52
2023-01-31T18:24:42.514Z,4.54
2023-01-31T18:27:15.090Z,4.56
2023-01-31T18:29:44.943Z,4.57
2023-01-31T18:32:19.146Z,4.57
2023-01-31T18:34:49.829Z,4.56
2023-01-31T18:37:20.784Z,4.55
2023-01-31T18:39:51.753Z,4.57
2023-01-31T18:42:24.827Z,4.58
2023-01-31T18:44:55.008Z,4.55
2023-01-31T18:47:24.914Z,4.52
2023-01-31T18:49:54.745Z,4.51
2023-01-31T18:52:25.065Z,4.50
2023-01-31T18:54:54.811Z,4.52
2023-01-31T18:57:27.283Z,4.55
2023-01-31T18:59:57.480Z,4.52
2023-01-31T19:02:27.459Z,4.52
2023-01-31T19:04:58.078Z,4.54
2023-01-31T19:07:27.923Z,4.55
2023-01-31T19:09:58.103Z,4.55
2023-01-31T19:12:30.591Z,4.59
2023-01-31T19:15:00.422Z,4.56
2023-01-31T19:17:30.277Z,4.56
2023-01-31T19:20:00.114Z,4.56
2023-01-31T19:22:30.501Z,7.33
2023-01-31T19:25:00.885Z,6.78
2023-01-31T19:27:33.684Z,7.19
2023-01-31T19:30:04.010Z,7.38
2023-01-31T19:32:33.907Z,6.43
2023-01-31T19:35:03.835Z,5.60
2023-01-31T19:37:33.987Z,5.34
2023-01-31T19:40:04.926Z,5.13
2023-01-31T19:42:37.710Z,5.06
2023-01-31T19:45:11.422Z,4.98
2023-01-31T19:47:41.316Z,4.93
2023-01-31T19:50:12.930Z,4.87
2023-01-31T19:52:42.754Z,4.88
2023-01-31T19:55:12.639Z,4.83
2023-01-31T19:57:45.127Z,4.81
2023-01-31T20:00:16.938Z,4.80
2023-01-31T20:02:47.313Z,4.76
2023-01-31T20:05:17.176Z,4.75
2023-01-31T20:07:47.015Z,4.69
2023-01-31T20:10:16.793Z,4.74
2023-01-31T20:12:49.681Z,4.69
2023-01-31T20:15:20.048Z,4.64
2023-01-31T20:17:49.868Z,4.63
2023-01-31T20:20:21.065Z,4.64
2023-01-31T20:22:51.129Z,4.62
2023-01-31T20:25:20.937Z,4.62
2023-01-31T20:27:53.666Z,4.59
2023-01-31T20:30:24.212Z,4.61
2023-01-31T20:32:54.242Z,4.64
2023-01-31T20:35:25.076Z,4.60
2023-01-31T20:37:55.152Z,4.56
2023-01-31T20:40:25.154Z,4.59
2023-01-31T20:42:57.654Z,4.58
2023-01-31T20:45:29.101Z,4.59
2023-01-31T20:48:01.010Z,4.62
2023-01-31T20:50:30.974Z,4.59
2023-01-31T20:53:00.949Z,4.58
2023-01-31T20:55:30.837Z,4.58
2023-01-31T20:58:03.281Z,4.54
2023-01-31T21:00:33.076Z,4.55
2023-01-31T21:03:03.666Z,4.52
2023-01-31T21:05:38.646Z,4.55
2023-01-31T21:08:11.386Z,4.51
2023-01-31T21:10:41.357Z,4.52
2023-01-31T21:13:13.877Z,4.50
2023-01-31T21:15:49.535Z,4.53
2023-01-31T21:18:20.064Z,4.41
2023-01-31T21:20:50.464Z,4.41
2023-01-31T21:23:20.434Z,4.38
2023-01-31T21:25:50.663Z,4.34
2023-01-31T21:28:23.098Z,4.36
2023-01-31T21:31:00.730Z,4.35
2023-01-31T21:33:31.771Z,4.32
2023-01-31T21:36:02.224Z,4.31
2023-01-31T21:38:32.104Z,4.28
2023-01-31T21:41:16.305Z,4.31
2023-01-31T21:43:48.955Z,4.30
2023-01-31T21:46:19.434Z,4.25
2023-01-31T21:48:50.065Z,4.27
2023-01-31T21:51:24.441Z,4.30
2023-01-31T21:53:57.037Z,4.27
2023-01-31T21:56:29.820Z,4.26
2023-01-31T21:59:02.614Z,4.24
2023-01-31T22:01:34.631Z,4.23
2023-01-31T22:04:05.666Z,4.22
2023-01-31T22:06:39.380Z,4.21
2023-01-31T22:09:12.708Z,4.26
2023-01-31T22:11:42.872Z,4.27
2023-01-31T22:14:18.061Z,4.23
2023-01-31T22:16:50.150Z,4.20
2023-01-31T22:19:20.170Z,4.18
2023-01-31T22:21:50.945Z,4.18
2023-01-31T22:24:20.856Z,4.19
2023-01-31T22:26:50.681Z,4.21
2023-01-31T22:29:23.594Z,4.18
2023-01-31T22:31:56.053Z,4.14
2023-01-31T22:34:26.126Z,4.16
2023-01-31T22:36:55.995Z,4.15
2023-01-31T22:39:26.305Z,4.18
2023-01-31T22:41:56.142Z,4.17
2023-01-31T22:44:28.822Z,4.17
2023-01-31T22:46:58.601Z,4.15
2023-01-31T22:49:28.922Z,4.18
2023-01-31T22:51:58.738Z,4.18
2023-01-31T22:54:28.554Z,4.20
2023-01-31T22:56:58.300Z,4.23
2023-01-31T22:59:30.917Z,4.23
2023-01-31T23:04:54.866Z,4.23
2023-01-31T23:07:24.818Z,4.26
2023-01-31T23:09:55.167Z,4.27
2023-01-31T23:12:25.237Z,4.28
2023-01-31T23:14:57.966Z,4.31
2023-01-31T23:17:40.238Z,4.32
2023-01-31T23:20:13.338Z,4.36
2023-01-31T23:22:44.750Z,4.36
2023-01-31T23:25:17.240Z,4.41
2023-01-31T23:27:47.454Z,4.36
2023-01-31T23:30:22.671Z,4.42
2023-01-31T23:32:52.793Z,4.36
2023-01-31T23:35:23.364Z,4.39
2023-01-31T23:37:53.385Z,4.38
2023-01-31T23:40:24.111Z,4.35
2023-01-31T23:42:54.876Z,4.42
2023-01-31T23:45:27.333Z,4.44
2023-01-31T23:47:57.898Z,4.43
2023-01-31T23:50:31.075Z,4.41
2023-01-31T23:53:02.528Z,4.42
2023-01-31T23:55:37.464Z,4.42
2023-01-31T23:58:08.063Z,4.45
